Flight Track Log - Related Links

Times and Time Zones

All times are in EST time to prevent confusion due to time zone crossing. See the N717AN flight status page for this flight to view local times or setup timezone preferences in your user account.

Time Position Orientation Groundspeed Altitude Reporting Facility
EST Latitude Longitude Course Direction KTS MPH feet Rate Location/Type
Mon 09:22:00 PM -23.0861 -46.6474 335° Northwest  Level FlightAware Approximate
Mon 09:23:00 PM -22.9708 -46.7064 335° Northwest  Level FlightAware Approximate
Mon 09:24:00 PM -22.8554 -46.7654 335° Northwest  Level FlightAware Approximate
Mon 09:25:00 PM -22.7400 -46.8243 335° Northwest  Level FlightAware Approximate
Mon 09:26:00 PM -22.6245 -46.8831 335° Northwest  Level FlightAware Approximate
Mon 09:27:00 PM -22.5091 -46.9417 335° Northwest  Level FlightAware Approximate
Mon 09:28:00 PM -22.3936 -47.0003 335° Northwest  Level FlightAware Approximate
Mon 09:29:00 PM -22.2781 -47.0588 335° Northwest  Level FlightAware Approximate
Mon 09:30:00 PM -22.1626 -47.1172 335° Northwest  Level FlightAware Approximate
Mon 09:31:00 PM -22.0471 -47.1755 335° Northwest  Level FlightAware Approximate
Mon 09:32:00 PM -21.9315 -47.2337 335° Northwest  Level FlightAware Approximate
Mon 09:33:00 PM -21.8129 -47.2842 335° Northwest  Level Estimated
Mon 09:34:00 PM -21.6978 -47.3433 334° Northwest  Level FlightAware Approximate
Mon 09:35:00 PM -21.5827 -47.4024 335° Northwest  Level FlightAware Approximate
Mon 09:36:00 PM -21.4675 -47.4613 335° Northwest  Level FlightAware Approximate
Mon 09:37:00 PM -21.3524 -47.5202 335° Northwest  Level FlightAware Approximate
Mon 09:38:00 PM -21.2372 -47.5789 335° Northwest  Level FlightAware Approximate
Mon 09:39:00 PM -21.1220 -47.6376 335° Northwest  Level FlightAware Approximate
Mon 09:40:00 PM -21.0068 -47.6962 335° Northwest  Level FlightAware Approximate
Mon 09:41:00 PM -20.8915 -47.7547 335° Northwest  Level FlightAware Approximate
Mon 09:42:00 PM -20.7763 -47.8131 335° Northwest  Level FlightAware Approximate
Mon 09:43:00 PM -20.6610 -47.8714 335° Northwest  Level FlightAware Approximate
Mon 09:44:00 PM -20.5457 -47.9296 335° Northwest  Level FlightAware Approximate
Mon 09:45:00 PM -20.4304 -47.9878 335° Northwest  Level FlightAware Approximate
Mon 09:46:00 PM -20.3150 -48.0458 335° Northwest  Level FlightAware Approximate
Mon 09:47:00 PM -20.1997 -48.1038 335° Northwest  Level FlightAware Approximate
Mon 09:48:00 PM -20.0843 -48.1616 335° Northwest  Level FlightAware Approximate
Mon 09:49:00 PM -19.9689 -48.2194 335° Northwest  Level FlightAware Approximate
Mon 09:50:00 PM -19.8535 -48.2771 335° Northwest  Level FlightAware Approximate
Mon 09:51:00 PM -19.7380 -48.3348 335° Northwest  Level FlightAware Approximate
Mon 09:52:00 PM -19.6226 -48.3923 335° Northwest  Level FlightAware Approximate
Mon 09:53:00 PM -19.5071 -48.4498 335° Northwest  Level FlightAware Approximate
Mon 09:54:00 PM -19.3916 -48.5071 335° Northwest  Level FlightAware Approximate
Mon 09:55:00 PM -19.2761 -48.5644 335° Northwest  Level FlightAware Approximate
Mon 09:56:00 PM -19.1606 -48.6216 335° Northwest  Level FlightAware Approximate
Mon 09:57:00 PM -19.0450 -48.6788 335° Northwest  Level FlightAware Approximate
Mon 09:58:00 PM -18.9295 -48.7358 335° Northwest  Level FlightAware Approximate
Mon 09:59:00 PM -18.8139 -48.7928 335° Northwest  Level FlightAware Approximate
Mon 10:00:00 PM -18.6983 -48.8497 335° Northwest  Level FlightAware Approximate
Mon 10:01:00 PM -18.5827 -48.9065 335° Northwest  Level FlightAware Approximate
Mon 10:02:00 PM -18.4671 -48.9632 335° Northwest  Level FlightAware Approximate
Mon 10:03:00 PM -18.3514 -49.0199 335° Northwest  Level FlightAware Approximate
Mon 10:04:00 PM -18.2358 -49.0765 335° Northwest  Level FlightAware Approximate
Mon 10:05:00 PM -18.1201 -49.1330 335° Northwest  Level FlightAware Approximate
Mon 10:06:00 PM -18.0044 -49.1894 335° Northwest  Level FlightAware Approximate
Mon 10:07:00 PM -17.8887 -49.2458 335° Northwest  Level FlightAware Approximate
Mon 10:08:00 PM -17.7729 -49.3021 335° Northwest  Level FlightAware Approximate
Mon 10:09:00 PM -17.6572 -49.3583 335° Northwest  Level FlightAware Approximate
Mon 10:10:00 PM -17.5414 -49.4145 335° Northwest  Level FlightAware Approximate
Mon 10:11:00 PM -17.4256 -49.4705 335° Northwest  Level FlightAware Approximate
Mon 10:12:00 PM -17.3099 -49.5265 335° Northwest  Level FlightAware Approximate
Mon 10:13:00 PM -17.1940 -49.5825 335° Northwest  Level FlightAware Approximate
Mon 10:14:00 PM -17.0782 -49.6383 335° Northwest  Level FlightAware Approximate
Mon 10:15:00 PM -16.9624 -49.6941 335° Northwest  Level FlightAware Approximate
Mon 10:16:00 PM -16.8465 -49.7498 335° Northwest  Level FlightAware Approximate
Mon 10:17:00 PM -16.7307 -49.8055 335° Northwest  Level FlightAware Approximate
Mon 10:18:00 PM -16.6148 -49.8611 335° Northwest  Level FlightAware Approximate
Mon 10:19:00 PM -16.4989 -49.9166 335° Northwest  Level FlightAware Approximate
Mon 10:20:00 PM -16.3830 -49.9721 335° Northwest  Level FlightAware Approximate
Mon 10:21:00 PM -16.2670 -50.0275 335° Northwest  Level FlightAware Approximate
Mon 10:22:00 PM -16.1511 -50.0828 335° Northwest  Level FlightAware Approximate
Mon 10:23:00 PM -16.0352 -50.1380 335° Northwest  Level FlightAware Approximate
Mon 10:24:00 PM -15.9192 -50.1932 335° Northwest  Level FlightAware Approximate
Mon 10:25:00 PM -15.8032 -50.2484 335° Northwest  Level FlightAware Approximate
Mon 10:26:00 PM -15.6872 -50.3034 335° Northwest  Level FlightAware Approximate
Mon 10:27:00 PM -15.5712 -50.3585 335° Northwest  Level FlightAware Approximate
Mon 10:28:00 PM -15.4552 -50.4134 335° Northwest  Level FlightAware Approximate
Mon 10:29:00 PM -15.3391 -50.4683 335° Northwest  Level FlightAware Approximate
Mon 10:30:00 PM -15.2231 -50.5231 335° Northwest  Level FlightAware Approximate
Mon 10:31:00 PM -15.1070 -50.5779 336° Northwest  Level FlightAware Approximate
Mon 10:32:00 PM -14.9909 -50.6325 336° Northwest  Level FlightAware Approximate
Mon 10:33:00 PM -14.8748 -50.6872 336° Northwest  Level FlightAware Approximate
Mon 10:34:00 PM -14.7587 -50.7418 336° Northwest  Level FlightAware Approximate
Mon 10:35:00 PM -14.6426 -50.7963 336° Northwest  Level FlightAware Approximate
Mon 10:36:00 PM -14.5265 -50.8508 336° Northwest  Level FlightAware Approximate
Mon 10:37:00 PM -14.4103 -50.9052 336° Northwest  Level FlightAware Approximate
Mon 10:38:00 PM -14.2942 -50.9595 336° Northwest  Level FlightAware Approximate
Mon 10:39:00 PM -14.1780 -51.0138 336° Northwest  Level FlightAware Approximate
Mon 10:40:00 PM -14.0618 -51.0681 336° Northwest  Level FlightAware Approximate
Mon 10:41:00 PM -13.9456 -51.1222 336° Northwest  Level FlightAware Approximate
Mon 10:42:00 PM -13.8294 -51.1764 336° Northwest  Level FlightAware Approximate
Mon 10:43:00 PM -13.7132 -51.2305 336° Northwest  Level FlightAware Approximate
Mon 10:44:00 PM -13.5970 -51.2845 336° Northwest  Level FlightAware Approximate
Mon 10:45:00 PM -13.4808 -51.3385 336° Northwest  Level FlightAware Approximate
Mon 10:46:00 PM -13.3645 -51.3924 336° Northwest  Level FlightAware Approximate
Mon 10:47:00 PM -13.2482 -51.4462 336° Northwest  Level FlightAware Approximate
Mon 10:48:00 PM -13.1320 -51.5001 336° Northwest  Level FlightAware Approximate
Mon 10:49:00 PM -13.0157 -51.5538 336° Northwest  Level FlightAware Approximate
Mon 10:50:00 PM -12.8994 -51.6075 336° Northwest  Level FlightAware Approximate
Mon 10:51:00 PM -12.7831 -51.6612 336° Northwest  Level FlightAware Approximate
Mon 10:52:00 PM -12.6668 -51.7148 336° Northwest  Level FlightAware Approximate
Mon 10:53:00 PM -12.5504 -51.7684 336° Northwest  Level FlightAware Approximate
Mon 10:54:00 PM -12.4341 -51.8219 336° Northwest  Level FlightAware Approximate
Mon 10:55:00 PM -12.3177 -51.8754 336° Northwest  Level FlightAware Approximate
Mon 10:56:00 PM -12.2014 -51.9288 336° Northwest  Level FlightAware Approximate
Mon 10:57:00 PM -12.0850 -51.9822 336° Northwest  Level FlightAware Approximate
Mon 10:58:00 PM -11.9686 -52.0355 336° Northwest  Level FlightAware Approximate
Mon 10:59:00 PM -11.8522 -52.0888 336° Northwest  Level FlightAware Approximate
Mon 11:00:00 PM -11.7358 -52.1420 336° Northwest  Level FlightAware Approximate
Mon 11:01:00 PM -11.6194 -52.1952 336° Northwest  Level FlightAware Approximate
Mon 11:02:00 PM -11.5030 -52.2483 336° Northwest  Level FlightAware Approximate
Mon 11:03:00 PM -11.3866 -52.3014 336° Northwest  Level FlightAware Approximate
Mon 11:04:00 PM -11.2701 -52.3545 336° Northwest  Level FlightAware Approximate
Mon 11:05:00 PM -11.1537 -52.4075 336° Northwest  Level FlightAware Approximate
Mon 11:06:00 PM -11.0372 -52.4605 336° Northwest  Level FlightAware Approximate
Mon 11:07:00 PM -10.9208 -52.5134 336° Northwest  Level FlightAware Approximate
Mon 11:08:00 PM -10.8043 -52.5663 336° Northwest  Level FlightAware Approximate
Mon 11:09:00 PM -10.6878 -52.6192 336° Northwest  Level FlightAware Approximate
Mon 11:10:00 PM -10.5713 -52.6720 336° Northwest  Level FlightAware Approximate
Mon 11:11:00 PM -10.4548 -52.7248 336° Northwest  Level FlightAware Approximate
Mon 11:12:00 PM -10.3383 -52.7775 336° Northwest  Level FlightAware Approximate
Mon 11:13:00 PM -10.2218 -52.8302 336° Northwest  Level FlightAware Approximate
Mon 11:14:00 PM -10.1053 -52.8828 336° Northwest  Level FlightAware Approximate
Mon 11:15:00 PM -9.9887 -52.9354 336° Northwest  Level FlightAware Approximate
Mon 11:16:00 PM -9.8722 -52.9880 336° Northwest  Level FlightAware Approximate
Mon 11:17:00 PM -9.7556 -53.0406 336° Northwest  Level FlightAware Approximate
Mon 11:18:00 PM -9.6391 -53.0931 336° Northwest  Level FlightAware Approximate
Mon 11:19:00 PM -9.5225 -53.1455 336° Northwest  Level FlightAware Approximate
Mon 11:20:00 PM -9.4059 -53.1980 336° Northwest  Level FlightAware Approximate
Mon 11:21:00 PM -9.2893 -53.2504 336° Northwest  Level FlightAware Approximate
Mon 11:22:00 PM -9.1727 -53.3027 336° Northwest  Level FlightAware Approximate
Mon 11:23:00 PM -9.0561 -53.3550 336° Northwest  Level FlightAware Approximate
Mon 11:24:00 PM -8.9395 -53.4073 336° Northwest  Level FlightAware Approximate
Mon 11:25:00 PM -8.8229 -53.4596 336° Northwest  Level FlightAware Approximate
Mon 11:26:00 PM -8.7063 -53.5118 336° Northwest  Level FlightAware Approximate
Mon 11:27:00 PM -8.5897 -53.5640 336° Northwest  Level FlightAware Approximate
Mon 11:28:00 PM -8.4730 -53.6162 336° Northwest  Level FlightAware Approximate
Mon 11:29:00 PM -8.3564 -53.6683 336° Northwest  Level FlightAware Approximate
Mon 11:30:00 PM -8.2397 -53.7204 336° Northwest  Level FlightAware Approximate
Mon 11:31:00 PM -8.1231 -53.7725 336° Northwest  Level FlightAware Approximate
Mon 11:32:00 PM -8.0064 -53.8245 336° Northwest  Level FlightAware Approximate
Mon 11:33:00 PM -7.8898 -53.8765 336° Northwest  Level FlightAware Approximate
Mon 11:34:00 PM -7.7731 -53.9285 336° Northwest  Level FlightAware Approximate
Mon 11:35:00 PM -7.6564 -53.9805 336° Northwest  Level FlightAware Approximate
Mon 11:36:00 PM -7.5397 -54.0324 336° Northwest  Level FlightAware Approximate
Mon 11:37:00 PM -7.4230 -54.0843 336° Northwest  Level FlightAware Approximate
Mon 11:38:00 PM -7.3063 -54.1361 336° Northwest  Level FlightAware Approximate
Mon 11:39:00 PM -7.1896 -54.1880 336° Northwest  Level FlightAware Approximate
Mon 11:40:00 PM -7.0729 -54.2398 336° Northwest  Level FlightAware Approximate
Mon 11:41:00 PM -6.9562 -54.2916 336° Northwest  Level FlightAware Approximate
Mon 11:42:00 PM -6.8394 -54.3433 336° Northwest  Level FlightAware Approximate
Mon 11:43:00 PM -6.7227 -54.3951 336° Northwest  Level FlightAware Approximate
Mon 11:44:00 PM -6.6060 -54.4468 336° Northwest  Level FlightAware Approximate
Mon 11:45:00 PM -6.4893 -54.4985 336° Northwest  Level FlightAware Approximate
Mon 11:46:00 PM -6.3725 -54.5501 336° Northwest  Level FlightAware Approximate
Mon 11:47:00 PM -6.2558 -54.6018 336° Northwest  Level FlightAware Approximate
Mon 11:48:00 PM -6.1390 -54.6534 336° Northwest  Level FlightAware Approximate
Mon 11:49:00 PM -6.0222 -54.7050 336° Northwest  Level FlightAware Approximate
Mon 11:50:00 PM -5.9055 -54.7565 336° Northwest  Level FlightAware Approximate
Mon 11:51:00 PM -5.7887 -54.8081 336° Northwest  Level FlightAware Approximate
Mon 11:52:00 PM -5.6719 -54.8596 336° Northwest  Level FlightAware Approximate
Mon 11:53:00 PM -5.5552 -54.9111 336° Northwest  Level FlightAware Approximate
Mon 11:54:00 PM -5.4384 -54.9626 336° Northwest  Level FlightAware Approximate
Mon 11:55:00 PM -5.3216 -55.0141 336° Northwest  Level FlightAware Approximate
Mon 11:56:00 PM -5.2048 -55.0655 336° Northwest  Level FlightAware Approximate
Mon 11:57:00 PM -5.0880 -55.1170 336° Northwest  Level FlightAware Approximate
Mon 11:58:00 PM -4.9712 -55.1684 336° Northwest  Level FlightAware Approximate
Mon 11:59:00 PM -4.8544 -55.2198 336° Northwest  Level FlightAware Approximate
Tue 12:00:00 AM -4.7376 -55.2711 336° Northwest  Level FlightAware Approximate
Tue 12:01:00 AM -4.6208 -55.3225 336° Northwest  Level FlightAware Approximate
Tue 12:02:00 AM -4.5040 -55.3738 336° Northwest  Level FlightAware Approximate
Tue 12:03:00 AM -4.3871 -55.4252 336° Northwest  Level FlightAware Approximate
Tue 12:04:00 AM -4.2703 -55.4765 336° Northwest  Level FlightAware Approximate
Tue 12:05:00 AM -4.1535 -55.5278 336° Northwest  Level FlightAware Approximate
Tue 12:06:00 AM -4.0367 -55.5790 336° Northwest  Level FlightAware Approximate
Tue 12:07:00 AM -3.9198 -55.6303 336° Northwest  Level FlightAware Approximate
Tue 12:08:00 AM -3.8030 -55.6815 336° Northwest  Level FlightAware Approximate
Tue 12:09:00 AM -3.6861 -55.7328 336° Northwest  Level FlightAware Approximate
Tue 12:10:00 AM -3.5693 -55.7840 336° Northwest  Level FlightAware Approximate
Tue 12:11:00 AM -3.4525 -55.8352 336° Northwest  Level FlightAware Approximate
Tue 12:12:00 AM -3.3356 -55.8864 336° Northwest  Level FlightAware Approximate
Tue 12:13:00 AM -3.2188 -55.9376 336° Northwest  Level FlightAware Approximate
Tue 12:14:00 AM -3.1019 -55.9887 336° Northwest  Level FlightAware Approximate
Tue 12:15:00 AM -2.9850 -56.0399 336° Northwest  Level FlightAware Approximate
Tue 12:16:00 AM -2.8682 -56.0910 336° Northwest  Level FlightAware Approximate
Tue 12:17:00 AM -2.7513 -56.1422 336° Northwest  Level FlightAware Approximate
Tue 12:18:00 AM -2.6345 -56.1933 336° Northwest  Level FlightAware Approximate
Tue 12:19:00 AM -2.5176 -56.2444 336° Northwest  Level FlightAware Approximate
Tue 12:20:00 AM -2.4007 -56.2956 336° Northwest  Level FlightAware Approximate
Tue 12:21:00 AM -2.2839 -56.3466 336° Northwest  Level FlightAware Approximate
Tue 12:22:00 AM -2.1670 -56.3977 336° Northwest  Level FlightAware Approximate
Tue 12:23:00 AM -2.0501 -56.4488 336° Northwest  Level FlightAware Approximate
Tue 12:24:00 AM -1.9333 -56.4999 336° Northwest  Level FlightAware Approximate
Tue 12:25:00 AM -1.8164 -56.5510 336° Northwest  Level FlightAware Approximate
Tue 12:26:00 AM -1.6995 -56.6020 336° Northwest  Level FlightAware Approximate
Tue 12:27:00 AM -1.5826 -56.6531 336° Northwest  Level FlightAware Approximate
Tue 12:28:00 AM -1.4657 -56.7041 336° Northwest  Level FlightAware Approximate
Tue 12:29:00 AM -1.3489 -56.7552 336° Northwest  Level FlightAware Approximate
Tue 12:30:00 AM -1.2320 -56.8062 336° Northwest  Level FlightAware Approximate
Tue 12:31:00 AM -1.1151 -56.8572 336° Northwest  Level FlightAware Approximate
Tue 12:32:00 AM -0.9982 -56.9083 336° Northwest  Level FlightAware Approximate
Tue 12:33:00 AM -0.8813 -56.9593 336° Northwest  Level FlightAware Approximate
Tue 12:34:00 AM -0.7645 -57.0103 336° Northwest  Level FlightAware Approximate
Tue 12:35:00 AM -0.6476 -57.0613 336° Northwest  Level FlightAware Approximate
Tue 12:36:00 AM -0.5307 -57.1124 336° Northwest  Level FlightAware Approximate
Tue 12:37:00 AM -0.4138 -57.1634 336° Northwest  Level FlightAware Approximate
Tue 12:38:00 AM -0.2969 -57.2144 336° Northwest  Level FlightAware Approximate
Tue 12:39:00 AM -0.1800 -57.2654 336° Northwest  Level FlightAware Approximate
Tue 12:40:00 AM -0.0631 -57.3164 336° Northwest  Level FlightAware Approximate
Tue 12:41:00 AM 0.0538 -57.3674 336° Northwest  Level FlightAware Approximate
Tue 12:42:00 AM 0.1706 -57.4184 336° Northwest  Level FlightAware Approximate
Tue 12:43:00 AM 0.2875 -57.4694 336° Northwest  Level FlightAware Approximate
Tue 12:44:00 AM 0.4044 -57.5205 336° Northwest  Level FlightAware Approximate
Tue 12:45:00 AM 0.5213 -57.5715 336° Northwest  Level FlightAware Approximate
Tue 12:46:00 AM 0.6382 -57.6225 336° Northwest  Level FlightAware Approximate
Tue 12:47:00 AM 0.7551 -57.6735 336° Northwest  Level FlightAware Approximate
Tue 12:48:00 AM 0.8720 -57.7245 336° Northwest  Level FlightAware Approximate
Tue 12:49:00 AM 0.9888 -57.7756 336° Northwest  Level FlightAware Approximate
Tue 12:50:00 AM 1.1057 -57.8266 336° Northwest  Level FlightAware Approximate
Tue 12:51:00 AM 1.2226 -57.8776 336° Northwest  Level FlightAware Approximate
Tue 12:52:00 AM 1.3395 -57.9287 336° Northwest  Level FlightAware Approximate
Tue 12:53:00 AM 1.4564 -57.9797 336° Northwest  Level FlightAware Approximate
Tue 12:54:00 AM 1.5732 -58.0308 336° Northwest  Level FlightAware Approximate
Tue 12:55:00 AM 1.6901 -58.0818 336° Northwest  Level FlightAware Approximate
Tue 12:56:00 AM 1.8070 -58.1329 336° Northwest  Level FlightAware Approximate
Tue 12:57:00 AM 1.9239 -58.1839 336° Northwest  Level FlightAware Approximate
Tue 12:58:00 AM 2.0407 -58.2350 336° Northwest  Level FlightAware Approximate
Tue 12:59:00 AM 2.1576 -58.2861 336° Northwest  Level FlightAware Approximate
Tue 01:00:00 AM 2.2745 -58.3372 336° Northwest  Level FlightAware Approximate
Tue 01:01:00 AM 2.3914 -58.3883 336° Northwest  Level FlightAware Approximate
Tue 01:02:00 AM 2.5082 -58.4394 336° Northwest  Level FlightAware Approximate
Tue 01:03:00 AM 2.6251 -58.4905 336° Northwest  Level FlightAware Approximate
Tue 01:04:00 AM 2.7417 -58.5415 336° Northwest  Level FlightAware Approximate
Tue 01:05:00 AM 2.8584 -58.5926 336° Northwest  Level FlightAware Approximate
Tue 01:06:00 AM 2.9750 -58.6436 336° Northwest  Level FlightAware Approximate
Tue 01:07:00 AM 3.0917 -58.6947 336° Northwest  Level FlightAware Approximate
Tue 01:08:00 AM 3.2083 -58.7458 336° Northwest  Level FlightAware Approximate
Tue 01:09:00 AM 3.3249 -58.7968 336° Northwest  Level FlightAware Approximate
Tue 01:10:00 AM 3.4416 -58.8479 336° Northwest  Level FlightAware Approximate
Tue 01:11:00 AM 3.5582 -58.8991 336° Northwest  Level FlightAware Approximate
Tue 01:12:00 AM 3.6748 -58.9502 336° Northwest  Level FlightAware Approximate
Tue 01:13:00 AM 3.7915 -59.0013 336° Northwest  Level FlightAware Approximate
Tue 01:14:00 AM 3.9081 -59.0525 336° Northwest  Level FlightAware Approximate
Tue 01:15:00 AM 4.0247 -59.1036 336° Northwest  Level FlightAware Approximate
Tue 01:16:00 AM 4.1413 -59.1548 336° Northwest  Level FlightAware Approximate
Tue 01:17:00 AM 4.2579 -59.2060 336° Northwest  Level FlightAware Approximate
Tue 01:18:00 AM 4.3745 -59.2572 336° Northwest  Level FlightAware Approximate
Tue 01:19:00 AM 4.4911 -59.3085 336° Northwest  Level FlightAware Approximate
Tue 01:20:00 AM 4.6077 -59.3597 336° Northwest  Level FlightAware Approximate
Tue 01:21:00 AM 4.7243 -59.4110 336° Northwest  Level FlightAware Approximate
Tue 01:22:00 AM 4.8410 -59.4622 336° Northwest  Level FlightAware Approximate
Tue 01:23:00 AM 4.9575 -59.5135 336° Northwest  Level FlightAware Approximate
Tue 01:24:00 AM 5.0741 -59.5648 336° Northwest  Level FlightAware Approximate
Tue 01:25:00 AM 5.1907 -59.6162 336° Northwest  Level FlightAware Approximate
Tue 01:26:00 AM 5.3073 -59.6675 336° Northwest  Level FlightAware Approximate
Tue 01:27:00 AM 5.4239 -59.7189 336° Northwest  Level FlightAware Approximate
Tue 01:28:00 AM 5.5404 -59.7703 336° Northwest  Level FlightAware Approximate
Tue 01:29:00 AM 5.6570 -59.8217 336° Northwest  Level FlightAware Approximate
Tue 01:30:00 AM 5.7736 -59.8731 336° Northwest  Level FlightAware Approximate
Tue 01:31:00 AM 5.8901 -59.9246 336° Northwest  Level FlightAware Approximate
Tue 01:32:00 AM 6.0067 -59.9760 336° Northwest  Level FlightAware Approximate
Tue 01:33:00 AM 6.1232 -60.0275 336° Northwest  Level FlightAware Approximate
Tue 01:34:00 AM 6.2398 -60.0791 336° Northwest  Level FlightAware Approximate
Tue 01:35:00 AM 6.3563 -60.1306 336° Northwest  Level FlightAware Approximate
Tue 01:36:00 AM 6.4728 -60.1822 336° Northwest  Level FlightAware Approximate
Tue 01:37:00 AM 6.5894 -60.2337 336° Northwest  Level FlightAware Approximate
Tue 01:38:00 AM 6.7059 -60.2854 336° Northwest  Level FlightAware Approximate
Tue 01:39:00 AM 6.8224 -60.3370 336° Northwest  Level FlightAware Approximate
Tue 01:40:00 AM 6.9389 -60.3887 336° Northwest  Level FlightAware Approximate
Tue 01:41:00 AM 7.0554 -60.4403 336° Northwest  Level FlightAware Approximate
Tue 01:42:00 AM 7.1843 -60.4813 343° North  Level Estimated
Tue 01:43:00 AM 7.3131 -60.5222 343° North  Level Estimated
Tue 01:44:00 AM 7.4419 -60.5631 343° North  Level Estimated
Tue 01:45:00 AM 7.5707 -60.6041 342° North  Level Estimated
Tue 01:46:00 AM 7.6996 -60.6451 342° North  Level Estimated
Tue 01:47:00 AM 7.8284 -60.6862 342° North  Level Estimated
Tue 01:48:00 AM 7.9572 -60.7272 342° North  Level Estimated
Tue 01:49:00 AM 8.0860 -60.7683 342° North  Level Estimated
Tue 01:50:00 AM 8.2148 -60.8094 342° North  Level Estimated
Tue 01:51:00 AM 8.3436 -60.8505 342° North  Level Estimated
Tue 01:52:00 AM 8.4724 -60.8917 342° North  Level Estimated
Tue 01:53:00 AM 8.6011 -60.9329 342° North  Level Estimated
Tue 01:54:00 AM 8.7299 -60.9741 342° North  Level Estimated
Tue 01:55:00 AM 8.8587 -61.0154 342° North  Level Estimated
Tue 01:56:00 AM 8.9875 -61.0566 342° North  Level Estimated
Tue 01:57:00 AM 9.1163 -61.0979 342° North  Level Estimated
Tue 01:58:00 AM 9.2450 -61.1393 342° North  Level Estimated
Tue 01:59:00 AM 9.3738 -61.1806 342° North  Level Estimated
Tue 02:00:00 AM 9.5025 -61.2220 342° North  Level Estimated
Tue 02:01:00 AM 9.6313 -61.2634 342° North  Level Estimated
Tue 02:02:00 AM 9.7600 -61.3049 342° North  Level Estimated
Tue 02:03:00 AM 9.8888 -61.3464 342° North  Level Estimated
Tue 02:04:00 AM 10.0175 -61.3879 342° North  Level Estimated
Tue 02:05:00 AM 10.1462 -61.4295 342° North  Level Estimated
Tue 02:06:00 AM 10.2750 -61.4711 342° North  Level Estimated
Tue 02:07:00 AM 10.4037 -61.5127 342° North  Level Estimated
Tue 02:08:00 AM 10.5324 -61.5543 342° North  Level Estimated
Tue 02:09:00 AM 10.6611 -61.5960 342° North  Level Estimated
Tue 02:10:00 AM 10.7898 -61.6377 342° North  Level Estimated
Tue 02:11:00 AM 10.9185 -61.6795 342° North  Level Estimated
Tue 02:12:00 AM 11.0472 -61.7213 342° North  Level Estimated
Tue 02:13:00 AM 11.1759 -61.7631 342° North  Level Estimated
Tue 02:14:00 AM 11.3046 -61.8050 342° North  Level Estimated
Tue 02:15:00 AM 11.4333 -61.8469 342° North  Level Estimated
Tue 02:16:00 AM 11.5619 -61.8889 342° North  Level Estimated
Tue 02:17:00 AM 11.6906 -61.9309 342° North  Level Estimated
Tue 02:18:00 AM 11.8193 -61.9729 342° North  Level Estimated
Tue 02:19:00 AM 11.9479 -62.0149 342° North  Level Estimated
Tue 02:20:00 AM 12.0765 -62.0570 342° North  Level Estimated
Tue 02:21:00 AM 12.2052 -62.0992 342° North  Level Estimated
Tue 02:22:00 AM 12.3338 -62.1414 342° North  Level Estimated
Tue 02:23:00 AM 12.4624 -62.1836 342° North  Level Estimated
Tue 02:24:00 AM 12.5911 -62.2259 342° North  Level Estimated
Tue 02:25:00 AM 12.7197 -62.2682 342° North  Level Estimated
Tue 02:26:00 AM 12.8483 -62.3106 342° North  Level Estimated
Tue 02:27:00 AM 12.9769 -62.3530 342° North  Level Estimated
Tue 02:28:00 AM 13.1055 -62.3954 342° North  Level Estimated
Tue 02:29:00 AM 13.2340 -62.4379 342° North  Level Estimated
Tue 02:30:00 AM 13.3626 -62.4804 342° North  Level Estimated
Tue 02:31:00 AM 13.4837 -62.5205 342° North  Level Estimated
Tue 02:32:00 AM 13.6048 -62.5606 342° North  Level Estimated
Tue 02:33:00 AM 13.7261 -62.6009 342° North  Level Estimated
Tue 02:34:00 AM 13.8474 -62.6412 342° North  Level Estimated
Tue 02:34:07 AM 14.3833 -65.0500 345° North 470 541 36,000  Level San Juan Center
Tue 02:35:00 AM 13.9686 -62.6815 342° North  Level Estimated
Tue 02:35:07 AM 14.5167 -65.0833 346° North 470 541 36,000  Level San Juan Center
Tue 02:36:00 AM 14.0899 -62.7219 342° North  Level Estimated
Tue 02:36:08 AM 14.6333 -65.1333 337° Northwest 470 541 36,000  Level San Juan Center
Tue 02:37:00 AM 14.2112 -62.7623 342° North  Level Estimated
Tue 02:37:08 AM 14.7667 -65.1833 340° North 470 541 36,000  Level San Juan Center
Tue 02:38:00 AM 14.3324 -62.8028 342° North  Level Estimated
Tue 02:38:08 AM 14.8833 -65.2167 345° North 470 541 36,000  Level San Juan Center
Tue 02:39:08 AM 15.0167 -65.2667 340° North 470 541 36,000  Level San Juan Center
Tue 02:40:08 AM 15.1333 -65.3000 345° North 470 541 36,000  Level San Juan Center
Tue 02:41:08 AM 15.2500 -65.3500 338° Northwest 460 529 36,000  Level San Juan Center
Tue 02:42:09 AM 15.3667 -65.4167 331° Northwest 470 541 36,000  Level San Juan Center
Tue 02:43:09 AM 15.4833 -65.4667 338° Northwest 470 541 36,000  Level San Juan Center
Tue 02:44:09 AM 15.6000 -65.5167 338° Northwest 470 541 36,000  Level San Juan Center
Tue 02:45:09 AM 15.7333 -65.5667 340° North 470 541 36,000  Level San Juan Center
Tue 02:46:09 AM 15.8500 -65.6333 331° Northwest 470 541 36,000  Level San Juan Center
Tue 02:47:09 AM 15.9667 -65.6833 338° Northwest 470 541 36,000  Level San Juan Center
Tue 02:48:09 AM 16.0833 -65.7500 331° Northwest 470 541 36,000  Level San Juan Center
Tue 02:49:09 AM 16.2000 -65.8000 338° Northwest 470 541 36,000  Level San Juan Center
Tue 02:50:10 AM 16.3333 -65.8667 334° Northwest 480 552 36,000  Level San Juan Center
Tue 02:51:10 AM 16.4500 -65.9167 338° Northwest 470 541 36,000  Level San Juan Center
Tue 02:52:10 AM 16.5667 -65.9833 331° Northwest 480 552 36,000  Level San Juan Center
Tue 02:53:10 AM 16.6833 -66.0333 338° Northwest 470 541 36,000  Level San Juan Center
Tue 02:54:10 AM 16.8000 -66.1000 331° Northwest 470 541 36,000  Level San Juan Center
Tue 02:55:10 AM 16.9333 -66.1500 340° North 470 541 36,000  Level San Juan Center
Tue 02:56:10 AM 17.0500 -66.2167 331° Northwest 470 541 36,000  Level San Juan Center
Tue 02:57:10 AM 17.1667 -66.2667 338° Northwest 470 541 36,000  Level San Juan Center
Tue 02:58:10 AM 17.2833 -66.3333 331° Northwest 470 541 36,000  Level San Juan Center
Tue 02:59:10 AM 17.4000 -66.3833 338° Northwest 470 541 36,000  Level San Juan Center
Tue 03:00:11 AM 17.5167 -66.4500 331° Northwest 470 541 36,000  Level San Juan Center
Tue 03:01:11 AM 17.6333 -66.5167 331° Northwest 460 529 36,000  Level San Juan Center
Tue 03:02:11 AM 17.7333 -66.6000 322° Northwest 470 541 36,000  Level San Juan Center
Tue 03:03:11 AM 17.8500 -66.6667 331° Northwest 460 529 36,000  Level San Juan Center
Tue 03:04:11 AM 17.9500 -66.7500 322° Northwest 460 529 36,000  Level San Juan Center
Tue 03:05:11 AM 18.0667 -66.8167 331° Northwest 470 541 36,000  Level San Juan Center
Tue 03:06:11 AM 18.1667 -66.9000 322° Northwest 470 541 36,000  Level San Juan Center
Tue 03:07:12 AM 18.2833 -66.9833 326° Northwest 470 541 36,000  Level San Juan Center
Tue 03:08:12 AM 18.3833 -67.0500 328° Northwest 470 541 36,000  Level San Juan Center
Tue 03:09:12 AM 18.5000 -67.1333 326° Northwest 470 541 36,000  Level San Juan Center
Tue 03:10:12 AM 18.6167 -67.2167 326° Northwest 470 541 36,000  Level San Juan Center
Tue 03:11:12 AM 18.7167 -67.3000 322° Northwest 470 541 36,000  Level San Juan Center
Tue 03:12:12 AM 18.8333 -67.3833 326° Northwest 480 552 36,000  Level San Juan Center
Tue 03:13:12 AM 18.9333 -67.4667 322° Northwest 480 552 36,000  Level San Juan Center
Tue 03:14:12 AM 19.0667 -67.5000 347° North 460 529 36,000  Level San Juan Center
Tue 03:15:12 AM 19.2000 -67.5333 347° North 480 552 36,000  Level San Juan Center
Tue 03:16:12 AM 19.3333 -67.5667 347° North 490 564 36,000  Level San Juan Center
Tue 03:17:13 AM 19.4667 -67.5833 353° North 480 552 36,000  Level San Juan Center
Tue 03:18:13 AM 19.6000 -67.6167 347° North 480 552 36,000  Level San Juan Center
Tue 03:19:13 AM 19.7333 -67.6500 347° North 490 564 36,000  Level San Juan Center
Tue 03:20:13 AM 19.8667 -67.6833 347° North 480 552 36,000  Level San Juan Center
Tue 03:21:47 AM 20.0822 -67.7333 348° North 541 623 36,000  Level Miami Center
Tue 03:22:45 AM 20.2097 -67.7822 340° North 520 598 36,000  Level Miami Center
Tue 03:23:47 AM 20.3428 -67.8153 347° North 502 578 36,000  Level Miami Center
Tue 03:24:48 AM 20.4717 -67.8511 345° North 484 557 36,000  Level Miami Center
Tue 03:25:47 AM 20.6050 -67.8886 346° North 484 557 36,000  Level Miami Center
Tue 03:26:00 AM 20.6231 -67.8874 347° North  Level FlightAware Approximate
Tue 03:26:46 AM 20.7319 -67.9267 344° North 484 557 36,000  Level Miami Center
Tue 03:27:48 AM 20.8653 -67.9647 345° North 489 563 36,000  Level Miami Center
Tue 03:28:45 AM 20.9942 -67.9983 346° North 484 557 36,000  Level Miami Center
Tue 03:29:47 AM 21.1253 -68.0342 346° North 484 557 36,000  Level Miami Center
Tue 03:30:47 AM 21.2542 -68.0678 346° North 484 557 36,000  Level Miami Center
Tue 03:31:47 AM 21.3831 -68.1039 345° North 476 548 36,000  Level Miami Center
Tue 03:32:48 AM 21.5103 -68.1400 347° North 476 548 36,000  Level Miami Center
Tue 03:33:00 AM 21.5031 -68.1129 346° North  Level FlightAware Approximate
Tue 03:33:00 AM 21.5356 -68.1411 347° North  Level FlightAware Approximate
Tue 03:33:46 AM 21.6456 -68.1758 346° North 486 559 36,000  Level Miami Center
Tue 03:34:00 AM 21.6285 -68.1470 346° North  Level FlightAware Approximate
Tue 03:34:46 AM 21.7764 -68.2075 346° North 486 559 36,000  Level Miami Center
Tue 03:35:00 AM 21.7539 -68.1811 346° North  Level FlightAware Approximate
Tue 03:35:00 AM 21.8002 -68.2117 348° North  Level FlightAware Approximate
Tue 03:37:46 AM 22.1531 -68.3125 346° North 473 544 36,000  Level Miami Center
Tue 03:38:45 AM 22.2842 -68.3464 347° North 473 544 36,000  Level Miami Center
Tue 03:39:45 AM 22.4133 -68.3828 345° North 479 551 36,000  Level Miami Center
Tue 03:40:47 AM 22.5400 -68.4150 347° North 479 551 36,000  Level Miami Center
Tue 03:41:47 AM 22.6736 -68.4558 344° North 479 551 36,000  Level Miami Center
Tue 03:42:00 AM 22.6733 -68.4359 346° North  Level FlightAware Approximate
Tue 03:42:45 AM 22.8067 -68.4897 347° North 480 552 36,000  Level Miami Center
Tue 03:43:46 AM 22.9314 -68.5222 347° North 483 556 36,000  Level Miami Center
Tue 03:44:45 AM 23.0564 -68.5592 345° North 474 545 36,000  Level Miami Center
Tue 03:45:48 AM 23.1919 -68.5978 345° North 481 554 36,000  Level Miami Center
Tue 03:46:45 AM 23.3169 -68.6303 347° North 475 547 36,000  Level Miami Center
Tue 03:47:45 AM 23.4458 -68.6650 346° North 475 547 36,000  Level Miami Center
Tue 03:48:45 AM 23.5750 -68.7017 345° North 475 547 36,000  Level Miami Center
Tue 03:49:45 AM 23.7042 -68.7389 345° North 482 555 36,000  Level Miami Center
Tue 03:50:48 AM 23.8353 -68.7733 346° North 482 555 36,000  Level Miami Center
Tue 03:51:46 AM 23.9581 -68.8086 345° North 472 543 36,000  Level Miami Center
Tue 03:52:48 AM 24.0850 -68.8414 347° North 472 543 36,000  Level Miami Center
Tue 03:53:47 AM 24.2119 -68.8764 346° North 472 543 36,000  Level Miami Center
Tue 03:54:48 AM 24.3392 -68.9136 345° North 471 542 36,000  Level Miami Center
Tue 03:55:45 AM 24.4661 -68.9489 346° North 466 536 36,000  Level Miami Center
Tue 03:56:45 AM 24.5636 -68.9744 347° North 460 529 36,000  Level Miami Center
Tue 03:57:45 AM 24.7033 -69.0158 345° North 465 535 36,000  Level Miami Center
Tue 03:58:48 AM 24.8236 -69.0425 349° North 458 527 36,000  Level Miami Center
Tue 03:59:47 AM 24.9508 -69.0844 343° North 464 534 36,000  Level Miami Center
Tue 04:00:46 AM 25.0822 -69.1219 346° North 464 534 36,000  Level Miami Center
Tue 04:01:43 AM 25.0000 -69.1000 349° North 463 533 36,000  Level New York Oceanic (ODAPS)
Tue 04:05:08 AM 25.4500 -69.1833 349° North 462 532 36,000  Level New York Oceanic (ODAPS)
Tue 04:09:00 AM 26.1579 -69.3406 349° North 463 533 36,000  Level FlightAware Transoceanic
Tue 04:10:00 AM 26.2866 -69.3676 349° North 463 533 36,000  Level FlightAware Transoceanic
Tue 04:11:00 AM 26.4661 -69.3977 349° North 462 532 36,000  Level FlightAware Transoceanic
Tue 04:12:00 AM 26.5930 -69.4248 349° North 462 532 36,000  Level FlightAware Transoceanic
Tue 04:13:00 AM 26.7200 -69.4519 349° North 462 532 36,000  Level FlightAware Transoceanic
Tue 04:13:51 AM 26.7167 -69.4500 349° North 464 534 36,000  Level New York Oceanic (ODAPS)
Tue 04:14:00 AM 26.8470 -69.4790 349° North 462 532 36,000  Level FlightAware Transoceanic
Tue 04:15:00 AM 26.9740 -69.5063 349° North 462 532 36,000  Level FlightAware Transoceanic
Tue 04:16:00 AM 27.1009 -69.5336 349° North 462 532 36,000  Level FlightAware Transoceanic
Tue 04:17:00 AM 27.2279 -69.5610 349° North 462 532 36,000  Level FlightAware Transoceanic
Tue 04:17:28 AM 27.2000 -69.5500 349° North 459 528 36,000  Level New York Oceanic (ODAPS)
Tue 04:18:00 AM 27.3548 -69.5884 349° North 462 532 36,000  Level FlightAware Transoceanic
Tue 04:19:00 AM 27.4818 -69.6159 349° North 462 532 36,000  Level FlightAware Transoceanic
Tue 04:20:00 AM 27.4791 -69.6144 349° North 464 534 36,000  Level FlightAware Transoceanic
Tue 04:21:00 AM 27.6062 -69.6420 349° North 464 534 36,000  Level FlightAware Transoceanic
Tue 04:21:58 AM 27.7667 -69.6833 349° North 457 526 36,000  Level New York Oceanic (ODAPS)
Tue 04:22:00 AM 27.7332 -69.6697 349° North 464 534 36,000  Level FlightAware Transoceanic
Tue 04:23:00 AM 27.9388 -69.7115 349° North 459 528 36,000  Level FlightAware Transoceanic
Tue 04:24:00 AM 28.0619 -69.7387 349° North 459 528 36,000  Level FlightAware Transoceanic
Tue 04:25:00 AM 28.1850 -69.7659 349° North 459 528 36,000  Level FlightAware Transoceanic
Tue 04:26:00 AM 28.3081 -69.7931 349° North 459 528 36,000  Level FlightAware Transoceanic
Tue 04:27:00 AM 28.4312 -69.8205 349° North 459 528 36,000  Level FlightAware Transoceanic
Tue 04:28:00 AM 28.5193 -69.8470 349° North 457 526 36,000  Level FlightAware Transoceanic
Tue 04:29:00 AM 28.6447 -69.8745 349° North 457 526 36,000  Level FlightAware Transoceanic
Tue 04:30:00 AM 28.7701 -69.9021 349° North 457 526 36,000  Level FlightAware Transoceanic
Tue 04:31:00 AM 28.8955 -69.9297 349° North 457 526 36,000 1,481 Level FlightAware Transoceanic
Tue 04:31:21 AM 28.9333 -69.9333 349° North 441 507 38,000  Climbing New York Oceanic (ODAPS)
Tue 04:32:00 AM 29.0210 -69.9574 349° North 457 526 36,000 -1,212 Descending FlightAware Transoceanic
Tue 04:33:00 AM 29.1464 -69.9852 349° North 457 526 36,000  Level FlightAware Transoceanic
Tue 04:34:00 AM 29.2717 -70.0130 349° North 457 526 36,000  Level FlightAware Transoceanic
Tue 04:35:00 AM 29.3971 -70.0409 349° North 457 526 36,000  Level FlightAware Transoceanic
Tue 04:36:00 AM 29.5225 -70.0689 349° North 457 526 36,000 1,000 Level FlightAware Transoceanic
Tue 04:37:00 AM 29.6668 -70.0988 349° North 441 507 38,000 1,000 Climbing FlightAware Transoceanic
Tue 04:38:00 AM 29.7890 -70.1266 349° North 441 507 38,000  Level FlightAware Transoceanic
Tue 04:39:00 AM 29.9112 -70.1545 349° North 441 507 38,000  Level FlightAware Transoceanic
Tue 04:40:00 AM 30.0334 -70.1824 349° North 441 507 38,000  Level FlightAware Transoceanic
Tue 04:41:00 AM 30.1556 -70.2104 349° North 441 507 38,000  Level FlightAware Transoceanic
Tue 04:42:00 AM 30.2778 -70.2385 349° North 441 507 38,000  Level FlightAware Transoceanic
Tue 04:43:00 AM 30.4000 -70.2667 349° North 441 507 38,000  Level FlightAware Transoceanic
Tue 04:43:30 AM 30.3667 -70.2500 337° Northwest 444 511 38,000  Level New York Oceanic (ODAPS)
Tue 04:44:00 AM 30.5212 -70.2943 349° North 441 507 38,000  Level FlightAware Transoceanic
Tue 04:45:00 AM 30.6425 -70.3220 349° North 441 507 38,000  Level FlightAware Transoceanic
Tue 04:45:13 AM 30.6000 -70.3000 349° North 441 507 38,000  Level New York Oceanic (ODAPS)
Tue 04:46:00 AM 30.7637 -70.3497 349° North 441 507 38,000  Level FlightAware Transoceanic
Tue 04:47:00 AM 30.8849 -70.3775 349° North 441 507 38,000  Level FlightAware Transoceanic
Tue 04:48:00 AM 31.0061 -70.4054 349° North 441 507 38,000  Level FlightAware Transoceanic
Tue 04:49:00 AM 31.1273 -70.4333 349° North 444 511 38,000  Level FlightAware Transoceanic
Tue 04:50:00 AM 31.2486 -70.4614 349° North 444 511 38,000  Level FlightAware Transoceanic
Tue 04:51:00 AM 31.3319 -70.4697 349° North 441 507 38,000  Level FlightAware Transoceanic
Tue 04:52:00 AM 31.4539 -70.4982 349° North 441 507 38,000  Level FlightAware Transoceanic
Tue 04:52:14 AM 31.4500 -70.5000 349° North 446 513 38,000  Level New York Oceanic (ODAPS)
Tue 04:53:00 AM 31.5759 -70.5268 349° North 441 507 38,000  Level FlightAware Transoceanic
Tue 04:54:00 AM 31.6978 -70.5555 349° North 441 507 38,000  Level FlightAware Transoceanic
Tue 04:55:00 AM 31.8198 -70.5843 349° North 441 507 38,000  Level FlightAware Transoceanic
Tue 04:56:00 AM 31.9417 -70.6131 349° North 441 507 38,000  Level FlightAware Transoceanic
Tue 04:57:00 AM 32.0637 -70.6421 349° North 441 507 38,000  Level FlightAware Transoceanic
Tue 04:58:00 AM 32.1822 -70.6726 349° North 446 513 38,000  Level FlightAware Transoceanic
Tue 04:59:00 AM 32.3042 -70.7016 349° North 446 513 38,000  Level FlightAware Transoceanic
Tue 04:59:05 AM 32.2833 -70.7000 349° North 446 513 38,000  Level New York Oceanic (ODAPS)
Tue 05:00:00 AM 32.4262 -70.7308 349° North 446 513 38,000  Level FlightAware Transoceanic
Tue 05:01:00 AM 32.5482 -70.7599 349° North 446 513 38,000  Level FlightAware Transoceanic
Tue 05:02:00 AM 32.6701 -70.7892 349° North 446 513 38,000  Level FlightAware Transoceanic
Tue 05:03:00 AM 32.7921 -70.8186 349° North 446 513 38,000  Level FlightAware Transoceanic
Tue 05:04:00 AM 32.9141 -70.8480 349° North 446 513 38,000  Level FlightAware Transoceanic
Tue 05:05:00 AM 33.0183 -70.8761 349° North 446 513 38,000  Level FlightAware Transoceanic
Tue 05:06:00 AM 33.1407 -70.9057 349° North 446 513 38,000  Level FlightAware Transoceanic
Tue 05:07:00 AM 33.2632 -70.9354 349° North 446 513 38,000  Level FlightAware Transoceanic
Tue 05:08:00 AM 33.3856 -70.9652 348° North 446 513 38,000  Level FlightAware Transoceanic
Tue 05:09:00 AM 33.5081 -70.9951 348° North 446 513 38,000  Level FlightAware Transoceanic
Tue 05:10:00 AM 33.6305 -71.0250 348° North 446 513 38,000  Level FlightAware Transoceanic
Tue 05:10:52 AM 33.6833 -71.0333 348° North 445 512 38,000  Level New York Oceanic (ODAPS)
Tue 05:11:00 AM 33.7529 -71.0551 348° North 446 513 38,000  Level FlightAware Transoceanic
Tue 05:12:00 AM 33.8754 -71.0852 348° North 446 513 38,000  Level FlightAware Transoceanic
Tue 05:12:57 AM 33.9500 -71.1000 348° North 441 507 38,000  Level New York Oceanic (ODAPS)
Tue 05:13:00 AM 33.9978 -71.1155 348° North 446 513 38,000  Level FlightAware Transoceanic
Tue 05:14:00 AM 34.1202 -71.1458 348° North 446 513 38,000  Level FlightAware Transoceanic
Tue 05:15:00 AM 34.2426 -71.1762 348° North 446 513 38,000  Level FlightAware Transoceanic
Tue 05:16:00 AM 34.3650 -71.2066 348° North 446 513 38,000  Level FlightAware Transoceanic
Tue 05:17:00 AM 34.4322 -71.2197 348° North 445 512 38,000  Level FlightAware Transoceanic
Tue 05:18:00 AM 34.5570 -71.2511 348° North 445 512 38,000  Level FlightAware Transoceanic
Tue 05:18:52 AM 34.6667 -71.2833 348° North 445 512 38,000  Level New York Oceanic (ODAPS)
Tue 05:19:00 AM 34.6950 -71.2864 348° North 441 507 38,000  Level FlightAware Transoceanic
Tue 05:20:00 AM 34.8191 -71.3178 348° North 441 507 38,000  Level FlightAware Transoceanic
Tue 05:21:00 AM 34.9432 -71.3493 348° North 441 507 38,000  Level FlightAware Transoceanic
Tue 05:22:00 AM 35.0673 -71.3809 348° North 441 507 38,000  Level FlightAware Transoceanic
Tue 05:23:00 AM 35.1915 -71.4126 348° North 441 507 38,000  Level FlightAware Transoceanic
Tue 05:24:00 AM 35.3156 -71.4444 348° North 441 507 38,000  Level FlightAware Transoceanic
Tue 05:25:00 AM 35.4194 -71.4740 348° North 445 512 38,000  Level FlightAware Transoceanic
Tue 05:26:00 AM 35.5449 -71.5061 348° North 445 512 38,000  Level FlightAware Transoceanic
Tue 05:27:00 AM 35.6703 -71.5383 348° North 445 512 38,000  Level FlightAware Transoceanic
Tue 05:27:00 AM 35.6333 -71.5333 348° North 442 509 38,000  Level New York Oceanic (ODAPS)
Tue 05:28:00 AM 35.7957 -71.5706 348° North 445 512 38,000  Level FlightAware Transoceanic
Tue 05:29:00 AM 35.9211 -71.6031 348° North 445 512 38,000  Level FlightAware Transoceanic
Tue 05:30:00 AM 36.0465 -71.6356 348° North 445 512 38,000  Level FlightAware Transoceanic
Tue 05:30:13 AM 35.6333 -71.5333 348° North 442 509 38,000  Level New York Oceanic (ODAPS)
Tue 05:31:00 AM 36.1719 -71.6682 348° North 445 512 38,000  Level FlightAware Transoceanic
Tue 05:32:00 AM 36.2973 -71.7009 348° North 445 512 38,000  Level FlightAware Transoceanic
Tue 05:33:00 AM 36.3478 -71.7168 348° North 442 509 38,000  Level FlightAware Transoceanic
Tue 05:34:00 AM 36.4669 -71.7477 348° North 442 509 38,000 -61 Level FlightAware Transoceanic
Tue 05:34:39 AM 36.5981 -71.7753 348° North 472 543 37,900  Descending New York Center
Tue 05:35:00 AM 36.5859 -71.7787 348° North 442 509 38,000 100 Climbing FlightAware Transoceanic
Tue 05:35:39 AM 36.7272 -71.8081 349° North 474 545 38,000  Level New York Center
Tue 05:36:00 AM 36.7049 -71.8098 348° North 442 509 38,000 -100 Level FlightAware Transoceanic
Tue 05:36:39 AM 36.8458 -71.8436 347° North 458 527 37,900  Descending New York Center
Tue 05:37:00 AM 36.8240 -71.8409 348° North 442 509 38,000 100 Climbing FlightAware Transoceanic
Tue 05:37:39 AM 36.9642 -71.8817 346° North 444 511 38,000  Level New York Center
Tue 05:38:00 AM 36.9430 -71.8722 348° North 442 509 38,000 -100 Level FlightAware Transoceanic
Tue 05:38:39 AM 37.0678 -71.9536 331° Northwest 427 491 37,900 -61 Descending New York Center
Tue 05:39:39 AM 37.1694 -72.0150 334° Northwest 419 482 37,900 50 Level New York Center
Tue 05:40:39 AM 37.2986 -72.0331 354° North 424 488 38,000 50 Climbing New York Center
Tue 05:41:39 AM 37.4367 -72.0039 10° North 460 529 38,000  Level New York Center
Tue 05:42:39 AM 37.5703 -71.9747 10° North 474 545 38,000  Level New York Center
Tue 05:43:39 AM 37.6958 -71.9456 10° North 473 544 38,000  Level New York Center
Tue 05:44:39 AM 37.8164 -71.9817 347° North 445 512 38,000  Level New York Center
Tue 05:50:43 AM 38.4912 -72.3127 347° North 389 448 38,000  Level FlightAware ADS-B (KWWD)
Tue 05:51:19 AM 38.5436 -72.3643 322° Northwest 390 449 38,000  Level FlightAware ADS-B (KWWD)
Tue 05:52:02 AM 38.6057 -72.4259 322° Northwest 391 450 38,000 -714 Level FlightAware ADS-B (KWWD)
Tue 05:52:43 AM 38.6643 -72.4839 322° Northwest 393 452 37,000 -2,250 Descending FlightAware ADS-B (KWWD)
Tue 05:53:22 AM 38.7204 -72.5399 322° Northwest 392 451 35,000 -3,117 Descending FlightAware ADS-B (KWWD)
Tue 05:54:00 AM 38.7769 -72.5961 322° Northwest 405 466 33,000 -2,692 Descending FlightAware ADS-B (KWWD)
Tue 05:54:40 AM 38.8345 -72.6533 322° Northwest 393 452 31,500 -2,313 Descending FlightAware ADS-B (KWWD)
Tue 05:55:23 AM 38.8966 -72.7155 322° Northwest 388 447 29,800 -2,341 Descending FlightAware ADS-B (KWWD)
Tue 05:56:02 AM 38.9535 -72.7725 322° Northwest 390 449 28,300 -2,400 Descending FlightAware ADS-B (KWWD)
Tue 05:56:43 AM 39.0119 -72.8312 322° Northwest 393 452 26,600 -2,222 Descending FlightAware ADS-B (KWWD)
Tue 05:57:23 AM 39.0677 -72.8874 322° Northwest 372 428 25,300 -1,975 Descending FlightAware ADS-B (KWWD)
Tue 05:58:02 AM 39.1184 -72.9382 322° Northwest 348 400 24,000 -2,250 Descending FlightAware ADS-B (KWWD)
Tue 05:58:43 AM 39.1712 -72.9919 322° Northwest 336 387 22,300 -2,634 Descending FlightAware ADS-B (KWWD)
Tue 05:59:24 AM 39.2212 -73.0428 322° Northwest 347 399 20,400 -2,370 Descending FlightAware ADS-B (KWWD)
Tue 06:00:04 AM 39.2718 -73.0937 322° Northwest 328 377 19,100 -1,747 Descending FlightAware ADS-B (KWWD)
Tue 06:00:43 AM 39.3173 -73.1399 322° Northwest 310 357 18,100 -1,575 Descending FlightAware ADS-B (KWWD)
Tue 06:01:24 AM 39.3640 -73.1876 322° Northwest 298 343 17,000 -1,519 Descending FlightAware ADS-B (KWWD)
Tue 06:02:02 AM 39.4054 -73.2299 322° Northwest 294 338 16,100 -1,425 Descending FlightAware ADS-B (KWWD)
Tue 06:02:44 AM 39.4493 -73.2749 322° Northwest 291 335 15,100 -1,463 Descending FlightAware ADS-B (KWWD)
Tue 06:03:24 AM 39.4944 -73.3210 322° Northwest 309 356 14,100 -1,079 Descending FlightAware ADS-B (KWWD)
Tue 06:05:03 AM 39.6067 -73.4356 322° Northwest 314 361 12,600 -876 Descending FlightAware ADS-B (KWWD)
Tue 06:06:22 AM 39.6920 -73.5238 321° Northwest 292 336 11,500 -894 Descending FlightAware ADS-B (KWWD)
Tue 06:07:24 AM 39.7570 -73.5904 322° Northwest 290 334 10,500 -1,071 Descending FlightAware ADS-B (KWWD)
Tue 06:08:42 AM 39.8335 -73.6702 321° Northwest 274 315 9,000 -874 Descending FlightAware ADS-B (KWWD)
Tue 06:09:07 AM 39.8579 -73.6953 322° Northwest 274 315 9,000 -105 Level FlightAware ADS-B (KWWD)
Tue 06:09:39 AM 39.8850 -73.7278 322° Northwest 275 316 8,900 -65 Descending New York Center
Tue 06:10:39 AM 39.9458 -73.7872 323° Northwest 275 316 8,900 -250 Level New York Center
Tue 06:11:39 AM 40.0225 -73.8039 351° North 265 305 8,400 -750 Descending New York Center
Tue 06:12:39 AM 40.1025 -73.7778 14° North 272 313 7,400 -1,050 Descending New York Center
Tue 06:13:39 AM 40.1803 -73.7539 13° North 285 328 6,300 -1,050 Descending New York Center
Tue 06:14:39 AM 40.2558 -73.7300 14° North 278 320 5,300 -1,100 Descending New York Center
Tue 06:15:39 AM 40.3272 -73.7058 14° North 267 307 4,100 -950 Descending New York Center
Tue 06:16:39 AM 40.3908 -73.6622 28° Northeast 256 295 3,400 -550 Descending New York Center
Tue 06:17:39 AM 40.4525 -73.6158 30° Northeast 251 289 3,000 -350 Descending New York Center
Tue 06:18:39 AM 40.5136 -73.5828 22° Northeast 245 282 2,700 -450 Descending New York Center
Tue 06:19:39 AM 40.5628 -73.6147 334° Northwest 210 242 2,100 -400 Descending New York Center
Tue 06:20:39 AM 40.5992 -73.6628 315° West 175 201 1,900 -450 Descending New York Center
Tue 06:21:39 AM 40.6169 -73.7019 301° West 156 180 1,200 -800 Descending New York Center
Tue 06:22:39 AM 40.6386 -73.7519 300° West 141 162 300 -450 Descending New York Center
Tue 06:23:39 AM 40.6561 -73.7967 297° West 141 162 300  Level New York Center

Login

Don't have an account? Register now (free) for customized features, flight alerts, and more!